createdAt,value
2022-12-25T00:01:08.523Z,14.07
2022-12-25T00:04:12.413Z,12.50
2022-12-25T00:07:15.239Z,9.10
2022-12-25T00:10:18.437Z,7.85
2022-12-25T00:13:21.194Z,7.47
2022-12-25T00:16:26.936Z,9.55
2022-12-25T00:19:29.813Z,10.55
2022-12-25T00:22:32.743Z,7.82
2022-12-25T00:25:39.481Z,6.53
2022-12-25T00:28:42.678Z,6.57
2022-12-25T00:31:46.962Z,6.38
2022-12-25T00:34:49.816Z,6.75
2022-12-25T00:37:52.587Z,6.50
2022-12-25T00:40:56.740Z,7.10
2022-12-25T00:44:00.673Z,7.10
2022-12-25T00:47:05.021Z,6.90
2022-12-25T00:50:09.218Z,7.38
2022-12-25T00:53:13.072Z,7.45
2022-12-25T00:56:15.857Z,6.65
2022-12-25T00:59:18.813Z,6.27
2022-12-25T01:02:26.252Z,6.40
2022-12-25T01:05:29.289Z,5.80
2022-12-25T01:08:34.225Z,5.40
2022-12-25T01:11:37.053Z,6.00
2022-12-25T01:14:39.840Z,5.93
2022-12-25T01:17:44.771Z,4.60
2022-12-25T01:20:48.087Z,4.32
2022-12-25T01:23:52.564Z,4.25
2022-12-25T01:26:55.414Z,4.00
2022-12-25T01:29:58.312Z,4.13
2022-12-25T01:33:02.753Z,3.85
2022-12-25T01:36:12.637Z,3.70
2022-12-25T01:39:15.489Z,3.97
2022-12-25T01:42:19.367Z,3.70
2022-12-25T01:45:44.450Z,3.53
2022-12-25T01:48:49.361Z,3.47
2022-12-25T01:51:54.566Z,3.85
2022-12-25T01:55:00.677Z,4.22
2022-12-25T01:58:03.765Z,3.78
2022-12-25T02:01:06.828Z,4.20
2022-12-25T02:04:16.607Z,4.03
2022-12-25T02:07:21.612Z,3.42
2022-12-25T02:10:24.383Z,3.47
2022-12-25T02:13:27.167Z,3.65
2022-12-25T02:16:35.594Z,3.10
2022-12-25T02:20:32.922Z,3.85
2022-12-25T02:24:06.379Z,3.83
2022-12-25T02:27:18.398Z,5.70
2022-12-25T02:30:22.826Z,5.30
2022-12-25T02:33:50.499Z,4.70
2022-12-25T02:37:02.668Z,5.47
2022-12-25T02:40:13.224Z,5.65
2022-12-25T02:43:38.838Z,5.50
2022-12-25T02:47:02.825Z,4.55
2022-12-25T02:50:26.630Z,4.60
2022-12-25T02:53:50.892Z,5.50
2022-12-25T02:57:15.531Z,5.43
2022-12-25T03:00:37.069Z,5.03
2022-12-25T03:04:07.477Z,4.40
2022-12-25T03:07:13.336Z,4.70
2022-12-25T03:10:35.178Z,5.28
2022-12-25T03:13:41.641Z,5.78
2022-12-25T03:16:50.963Z,5.53
2022-12-25T03:20:13.728Z,7.60
2022-12-25T03:23:38.894Z,5.30
2022-12-25T03:26:56.939Z,5.18
2022-12-25T03:30:18.079Z,5.15
2022-12-25T03:33:45.153Z,4.35
2022-12-25T03:37:02.334Z,3.90
2022-12-25T03:40:42.568Z,3.80
2022-12-25T03:44:12.965Z,3.65
2022-12-25T03:47:37.690Z,3.33
2022-12-25T03:51:03.903Z,3.75
2022-12-25T03:54:29.804Z,4.68
2022-12-25T03:57:52.777Z,4.80
2022-12-25T04:01:18.662Z,4.72
2022-12-25T04:04:40.087Z,5.13
2022-12-25T04:08:01.072Z,4.30
2022-12-25T04:11:23.755Z,4.32
2022-12-25T04:14:45.225Z,3.87
2022-12-25T04:18:10.331Z,4.85
2022-12-25T04:21:31.351Z,4.50
2022-12-25T04:24:52.560Z,5.00
2022-12-25T04:28:19.777Z,4.65
2022-12-25T04:31:41.358Z,5.33
2022-12-25T04:35:02.879Z,4.85
2022-12-25T04:38:05.832Z,5.07
2022-12-25T04:41:10.070Z,5.47
2022-12-25T04:44:14.306Z,4.88
2022-12-25T04:47:16.982Z,4.43
2022-12-25T04:50:20.001Z,3.92
2022-12-25T04:53:23.079Z,3.72
2022-12-25T04:56:25.821Z,3.85
2022-12-25T04:59:30.127Z,4.00
2022-12-25T05:02:33.355Z,6.80
2022-12-25T05:05:39.287Z,5.60
2022-12-25T05:08:42.108Z,5.28
2022-12-25T05:11:44.763Z,5.05
2022-12-25T05:14:48.823Z,4.90
2022-12-25T05:17:51.550Z,4.70
2022-12-25T05:20:54.896Z,4.35
2022-12-25T05:23:57.600Z,4.28
2022-12-25T05:27:00.363Z,4.85
2022-12-25T05:30:05.282Z,5.15
2022-12-25T05:33:08.310Z,5.87
2022-12-25T05:36:13.039Z,6.68
2022-12-25T05:39:15.770Z,7.03
2022-12-25T05:42:18.556Z,6.38
2022-12-25T05:45:22.762Z,5.72
2022-12-25T05:48:25.495Z,6.63
2022-12-25T05:51:28.253Z,7.47
2022-12-25T05:54:30.979Z,8.50
2022-12-25T05:57:33.695Z,8.05
2022-12-25T06:00:38.101Z,8.48
2022-12-25T06:03:41.014Z,7.50
2022-12-25T06:06:43.996Z,7.45
2022-12-25T06:09:46.887Z,8.05
2022-12-25T06:12:49.601Z,7.40
2022-12-25T06:15:53.823Z,7.82
2022-12-25T06:18:56.817Z,8.20
2022-12-25T06:21:59.640Z,8.38
2022-12-25T06:25:02.486Z,8.05
2022-12-25T06:28:05.174Z,8.50
2022-12-25T06:31:11.683Z,9.27
2022-12-25T06:34:16.622Z,9.43
2022-12-25T06:37:19.866Z,8.40
2022-12-25T06:40:22.683Z,7.78
2022-12-25T06:43:25.399Z,8.05
2022-12-25T06:46:30.375Z,8.35
2022-12-25T06:49:33.222Z,8.53
2022-12-25T06:52:36.101Z,9.27
2022-12-25T06:55:38.873Z,11.57
2022-12-25T06:58:43.235Z,21.38
2022-12-25T07:01:50.072Z,27.25
2022-12-25T07:04:53.577Z,21.87
2022-12-25T07:07:56.224Z,21.45
2022-12-25T07:10:59.118Z,22.02
2022-12-25T07:14:01.824Z,23.30
2022-12-25T07:17:06.142Z,24.55
2022-12-25T07:20:09.859Z,31.60
2022-12-25T07:23:12.712Z,23.90
2022-12-25T07:26:17.471Z,20.10
2022-12-25T07:29:20.228Z,16.90
2022-12-25T07:32:24.501Z,15.32
2022-12-25T07:35:27.248Z,14.27
2022-12-25T07:38:30.055Z,16.13
2022-12-25T07:41:32.966Z,18.70
2022-12-25T07:44:49.611Z,18.40
2022-12-25T07:47:55.246Z,22.90
2022-12-25T07:51:00.093Z,18.80
2022-12-25T07:54:02.954Z,14.55
2022-12-25T07:57:05.719Z,14.05
2022-12-25T08:00:09.812Z,16.13
2022-12-25T08:03:17.017Z,12.50
2022-12-25T08:06:20.922Z,10.50
2022-12-25T08:09:23.881Z,10.68
2022-12-25T08:12:26.713Z,15.85
2022-12-25T08:15:30.622Z,22.77
2022-12-25T08:18:36.359Z,18.35
2022-12-25T08:21:39.399Z,16.90
2022-12-25T08:24:42.095Z,16.77
2022-12-25T08:27:44.853Z,17.52
2022-12-25T08:30:47.651Z,18.60
2022-12-25T08:33:54.193Z,23.00
2022-12-25T08:36:56.988Z,16.03
2022-12-25T08:39:59.780Z,12.40
2022-12-25T08:43:02.596Z,24.67
2022-12-25T08:46:05.900Z,21.52
2022-12-25T08:49:10.091Z,23.48
2022-12-25T08:52:12.886Z,21.83
2022-12-25T08:55:16.801Z,19.67
2022-12-25T08:58:20.001Z,11.90
2022-12-25T09:01:22.979Z,10.85
2022-12-25T09:04:27.469Z,11.40
2022-12-25T09:07:30.165Z,11.83
2022-12-25T09:10:35.635Z,11.45
2022-12-25T09:13:39.428Z,15.95
2022-12-25T09:16:42.158Z,18.55
2022-12-25T09:19:46.495Z,16.00
2022-12-25T09:22:49.592Z,15.83
2022-12-25T09:25:52.396Z,13.93
2022-12-25T09:28:55.254Z,12.05
2022-12-25T09:31:58.195Z,14.63
2022-12-25T09:35:02.578Z,11.18
2022-12-25T09:38:05.351Z,12.03
2022-12-25T09:41:14.795Z,10.02
2022-12-25T09:44:22.689Z,9.38
2022-12-25T09:47:28.541Z,9.10
2022-12-25T09:50:41.214Z,9.73
2022-12-25T09:53:51.812Z,13.17
2022-12-25T09:56:54.634Z,16.60
2022-12-25T09:59:57.377Z,19.63
2022-12-25T10:03:09.382Z,9.90
2022-12-25T10:06:20.837Z,12.88
2022-12-25T10:09:41.982Z,8.77
2022-12-25T10:12:54.991Z,7.47
2022-12-25T10:16:11.652Z,9.30
2022-12-25T10:19:28.160Z,9.82
2022-12-25T10:22:36.036Z,7.30
2022-12-25T10:25:40.075Z,14.57
2022-12-25T10:28:44.804Z,6.90
2022-12-25T10:31:49.687Z,7.03
2022-12-25T10:34:52.575Z,5.68
2022-12-25T10:38:00.160Z,6.30
2022-12-25T10:41:19.765Z,6.60
2022-12-25T10:44:24.602Z,6.18
2022-12-25T10:47:29.793Z,7.45
2022-12-25T10:50:33.789Z,5.88
2022-12-25T10:53:41.690Z,4.63
2022-12-25T10:56:53.089Z,4.77
2022-12-25T10:59:56.884Z,4.90
2022-12-25T11:03:00.284Z,7.30
2022-12-25T11:06:04.358Z,4.78
2022-12-25T11:09:16.556Z,4.35
2022-12-25T11:12:21.834Z,4.67
2022-12-25T11:15:39.149Z,4.50
2022-12-25T11:18:47.786Z,3.20
2022-12-25T11:21:52.586Z,4.22
2022-12-25T11:24:56.739Z,3.90
2022-12-25T11:28:00.942Z,3.80
2022-12-25T11:31:08.073Z,6.05
2022-12-25T11:34:16.963Z,6.20
2022-12-25T11:37:24.136Z,4.70
2022-12-25T11:40:41.775Z,5.20
2022-12-25T11:43:48.818Z,4.00
2022-12-25T11:46:52.199Z,4.22
2022-12-25T11:50:01.016Z,4.18
2022-12-25T11:53:10.161Z,4.60
2022-12-25T11:56:18.788Z,4.57
2022-12-25T11:59:26.849Z,5.00
2022-12-25T12:02:36.581Z,3.85
2022-12-25T12:05:45.345Z,4.78
2022-12-25T12:08:54.070Z,4.47
2022-12-25T12:12:03.961Z,3.58
2022-12-25T12:15:17.214Z,4.20
2022-12-25T12:18:22.287Z,3.10
2022-12-25T12:21:28.203Z,3.58
2022-12-25T12:24:37.892Z,3.00
2022-12-25T12:27:43.497Z,3.25
2022-12-25T12:30:57.729Z,3.00
2022-12-25T12:34:00.565Z,3.20
2022-12-25T12:37:07.778Z,2.50
2022-12-25T12:40:26.091Z,5.40
2022-12-25T12:43:36.384Z,3.60
2022-12-25T12:46:49.648Z,4.10
2022-12-25T12:49:57.889Z,6.28
2022-12-25T12:53:15.415Z,6.22
2022-12-25T12:56:20.022Z,8.02
2022-12-25T12:59:25.057Z,7.72
2022-12-25T13:03:02.851Z,7.80
2022-12-25T13:06:14.560Z,8.30
2022-12-25T13:09:27.476Z,8.27
2022-12-25T13:12:30.580Z,7.35
2022-12-25T13:15:35.780Z,9.40
2022-12-25T13:18:39.818Z,9.00
2022-12-25T13:21:52.762Z,11.35
2022-12-25T13:24:57.553Z,11.43
2022-12-25T13:28:00.298Z,9.18
2022-12-25T13:31:07.019Z,8.82
2022-12-25T13:34:23.137Z,8.63
2022-12-25T13:37:28.481Z,10.30
2022-12-25T13:40:31.275Z,11.60
2022-12-25T13:43:34.106Z,8.95
2022-12-25T13:46:38.226Z,7.75
2022-12-25T13:49:41.304Z,9.00
2022-12-25T13:52:44.053Z,10.13
2022-12-25T13:55:50.162Z,8.98
2022-12-25T13:58:53.115Z,8.82
2022-12-25T14:01:57.802Z,12.73
2022-12-25T14:05:00.811Z,30.23
2022-12-25T14:08:12.438Z,16.95
2022-12-25T14:11:17.749Z,15.25
2022-12-25T14:14:24.306Z,15.43
2022-12-25T14:17:28.644Z,24.52
2022-12-25T14:20:36.951Z,20.77
2022-12-25T14:23:42.732Z,20.15
2022-12-25T14:26:45.612Z,23.50
2022-12-25T14:29:51.275Z,27.00
2022-12-25T14:32:56.528Z,27.20
2022-12-25T14:35:59.378Z,28.00
2022-12-25T14:39:05.631Z,31.25
2022-12-25T14:42:19.141Z,28.48
2022-12-25T14:45:26.929Z,39.70
2022-12-25T14:48:33.101Z,39.90
2022-12-25T14:51:39.174Z,37.67
2022-12-25T14:54:46.109Z,47.75
2022-12-25T14:57:51.806Z,45.83
2022-12-25T15:00:56.512Z,40.40
2022-12-25T15:04:15.708Z,33.17
2022-12-25T15:07:29.974Z,33.57
2022-12-25T15:13:56.544Z,26.52
2022-12-25T15:17:01.316Z,26.92
2022-12-25T15:20:08.867Z,21.85
2022-12-25T15:23:21.905Z,21.40
2022-12-25T15:26:25.470Z,19.50
2022-12-25T15:30:00.217Z,18.98
2022-12-25T15:32:51.302Z,16.40
2022-12-25T15:35:55.396Z,15.65
2022-12-25T15:38:58.170Z,16.73
2022-12-25T15:42:12.862Z,22.77
2022-12-25T15:45:20.499Z,20.75
2022-12-25T15:48:23.385Z,23.40
2022-12-25T15:51:27.520Z,22.38
2022-12-25T15:54:31.147Z,19.83
2022-12-25T15:57:35.180Z,30.05
2022-12-25T16:00:38.078Z,21.45
2022-12-25T16:03:42.212Z,23.77
2022-12-25T16:06:46.470Z,28.50
2022-12-25T16:09:49.529Z,36.83
2022-12-25T16:12:53.284Z,31.55
2022-12-25T16:15:56.163Z,21.73
2022-12-25T16:18:59.252Z,23.00
2022-12-25T16:22:11.763Z,23.08
2022-12-25T16:25:16.937Z,22.53
2022-12-25T16:28:19.743Z,22.02
2022-12-25T16:31:22.519Z,21.02
2022-12-25T16:34:25.249Z,20.83
2022-12-25T16:37:29.476Z,21.67
2022-12-25T16:40:32.517Z,24.03
2022-12-25T16:43:35.525Z,19.90
2022-12-25T16:46:40.298Z,20.48
2022-12-25T16:49:43.468Z,25.52
2022-12-25T16:52:47.572Z,25.55
2022-12-25T16:55:50.258Z,27.27
2022-12-25T16:58:53.000Z,24.95
2022-12-25T17:01:55.968Z,31.55
2022-12-25T17:05:00.452Z,31.23
2022-12-25T17:08:05.151Z,29.90
2022-12-25T17:11:07.990Z,24.73
2022-12-25T17:14:11.245Z,25.83
2022-12-25T17:17:14.379Z,24.02
2022-12-25T17:20:17.131Z,22.23
2022-12-25T17:23:21.424Z,21.17
2022-12-25T17:26:24.779Z,22.20
2022-12-25T17:29:27.478Z,23.25
2022-12-25T17:32:30.236Z,24.73
2022-12-25T17:35:35.699Z,25.27
2022-12-25T17:38:40.371Z,30.77
2022-12-25T17:41:43.053Z,25.77
2022-12-25T17:44:46.341Z,27.17
2022-12-25T17:47:49.027Z,23.75
2022-12-25T17:50:51.902Z,24.95
2022-12-25T17:53:58.210Z,25.58
2022-12-25T17:57:01.031Z,24.17
2022-12-25T18:00:04.603Z,23.88
2022-12-25T18:03:11.480Z,24.58
2022-12-25T18:06:17.237Z,24.80
2022-12-25T18:09:21.664Z,29.17
2022-12-25T18:12:24.338Z,30.17
2022-12-25T18:15:27.056Z,30.30
2022-12-25T18:18:29.960Z,29.05
2022-12-25T18:21:32.748Z,31.52
2022-12-25T18:24:37.447Z,37.53
2022-12-25T18:27:40.152Z,34.37
2022-12-25T18:30:45.297Z,30.88
2022-12-25T18:33:48.911Z,27.05
2022-12-25T18:36:51.595Z,24.52
2022-12-25T18:39:55.819Z,23.45
2022-12-25T18:43:03.175Z,31.30
2022-12-25T18:46:06.606Z,30.38
2022-12-25T18:49:11.024Z,39.92
2022-12-25T18:52:49.867Z,33.78
2022-12-25T18:55:40.329Z,29.67
2022-12-25T18:58:43.553Z,28.23
2022-12-25T19:01:46.660Z,25.90
2022-12-25T19:04:49.397Z,23.55
2022-12-25T19:07:52.261Z,24.08
2022-12-25T19:10:56.362Z,26.10
2022-12-25T19:13:59.100Z,25.53
2022-12-25T19:17:02.083Z,22.70
2022-12-25T19:20:06.255Z,22.35
2022-12-25T19:23:09.209Z,22.02
2022-12-25T19:26:13.375Z,22.00
2022-12-25T19:29:16.954Z,21.27
2022-12-25T19:32:19.816Z,22.83
2022-12-25T19:35:22.809Z,21.60
2022-12-25T19:38:25.791Z,21.90
2022-12-25T19:41:30.251Z,20.65
2022-12-25T19:44:33.276Z,23.17
2022-12-25T19:47:35.970Z,21.85
2022-12-25T19:50:38.741Z,22.60
2022-12-25T19:53:41.619Z,21.83
2022-12-25T19:56:45.909Z,21.75
2022-12-25T19:59:49.684Z,25.13
2022-12-25T20:02:52.586Z,27.67
2022-12-25T20:05:56.597Z,28.42
2022-12-25T20:09:03.834Z,25.02
2022-12-25T20:12:10.373Z,23.35
2022-12-25T20:15:13.780Z,25.30
2022-12-25T20:18:17.385Z,24.27
2022-12-25T20:21:22.639Z,25.08
2022-12-25T20:24:25.414Z,25.92
2022-12-25T20:27:29.508Z,29.70
2022-12-25T20:30:32.301Z,26.37
2022-12-25T20:33:36.299Z,27.48
2022-12-25T20:36:39.241Z,25.85
2022-12-25T20:39:42.139Z,25.58
2022-12-25T20:42:46.342Z,24.13
2022-12-25T20:45:51.646Z,25.27
2022-12-25T20:48:54.486Z,25.10
2022-12-25T20:52:03.018Z,24.00
2022-12-25T20:55:08.344Z,24.55
2022-12-25T20:58:12.596Z,24.25
2022-12-25T21:01:17.651Z,22.37
2022-12-25T21:04:20.469Z,21.95
2022-12-25T21:07:23.109Z,24.13
2022-12-25T21:10:25.742Z,23.98
2022-12-25T21:13:32.380Z,25.70
2022-12-25T21:16:35.485Z,26.07
2022-12-25T21:19:38.257Z,25.65
2022-12-25T21:22:41.326Z,27.42
2022-12-25T21:25:44.202Z,26.08
2022-12-25T21:28:51.465Z,25.02
2022-12-25T21:32:13.509Z,25.30
2022-12-25T21:35:16.343Z,24.48
2022-12-25T21:38:19.016Z,25.98
2022-12-25T21:41:21.955Z,26.60
2022-12-25T21:44:26.027Z,27.10
2022-12-25T21:48:00.353Z,25.87
2022-12-25T21:51:10.596Z,26.10
2022-12-25T21:54:14.818Z,23.30
2022-12-25T21:57:17.550Z,23.98
2022-12-25T22:00:29.220Z,25.10
2022-12-25T22:03:32.209Z,24.33
2022-12-25T22:06:54.512Z,24.45
2022-12-25T22:09:57.237Z,23.75
2022-12-25T22:13:19.478Z,24.77
2022-12-25T22:16:42.458Z,24.15
2022-12-25T22:19:45.419Z,22.17
2022-12-25T22:22:48.811Z,20.83
2022-12-25T22:25:51.498Z,22.02
2022-12-25T22:28:54.322Z,24.10
2022-12-25T22:31:58.651Z,21.95
2022-12-25T22:35:02.475Z,22.60
2022-12-25T22:38:05.337Z,21.15
2022-12-25T22:41:08.179Z,21.77
2022-12-25T22:44:18.623Z,22.17
2022-12-25T22:47:24.230Z,20.92
2022-12-25T22:50:27.206Z,21.83
2022-12-25T22:53:29.950Z,21.60
2022-12-25T22:56:32.631Z,21.83
2022-12-25T22:59:35.580Z,20.42
2022-12-25T23:02:40.065Z,20.55
2022-12-25T23:05:42.989Z,19.73
2022-12-25T23:08:45.717Z,19.55
2022-12-25T23:11:48.606Z,20.00
2022-12-25T23:14:51.453Z,20.60
2022-12-25T23:18:14.340Z,20.05
2022-12-25T23:21:36.689Z,20.23
2022-12-25T23:24:58.975Z,19.95
2022-12-25T23:28:01.666Z,19.15
2022-12-25T23:31:04.647Z,20.50
2022-12-25T23:34:09.844Z,19.77
2022-12-25T23:37:12.636Z,19.40
2022-12-25T23:40:15.669Z,20.17
2022-12-25T23:43:18.597Z,19.60
2022-12-25T23:46:21.443Z,18.00
2022-12-25T23:49:26.345Z,19.02
2022-12-25T23:52:29.055Z,18.80
2022-12-25T23:55:33.782Z,18.90
2022-12-25T23:58:37.453Z,18.27
